createdAt,value
2019-05-19T00:00:34.776Z,15.70
2019-05-19T00:03:04.348Z,15.60
2019-05-19T00:05:33.768Z,15.60
2019-05-19T00:08:03.201Z,15.60
2019-05-19T00:10:32.692Z,15.60
2019-05-19T00:13:02.114Z,15.50
2019-05-19T00:15:31.529Z,15.50
2019-05-19T00:18:00.903Z,15.50
2019-05-19T00:20:30.484Z,15.30
2019-05-19T00:22:59.947Z,15.40
2019-05-19T00:25:29.354Z,15.40
2019-05-19T00:27:58.690Z,15.40
2019-05-19T00:30:28.266Z,15.40
2019-05-19T00:32:57.621Z,15.30
2019-05-19T00:35:26.989Z,15.30
2019-05-19T00:37:56.368Z,15.30
2019-05-19T00:40:25.755Z,15.30
2019-05-19T00:42:55.234Z,15.20
2019-05-19T00:45:24.784Z,15.20
2019-05-19T00:47:54.081Z,15.20
2019-05-19T00:50:23.477Z,15.10
2019-05-19T00:52:52.872Z,15.10
2019-05-19T00:55:22.244Z,15.10
2019-05-19T00:57:52.263Z,15.00
2019-05-19T01:00:21.980Z,15.00
2019-05-19T01:02:51.503Z,14.90
2019-05-19T01:05:20.986Z,14.90
2019-05-19T01:07:50.455Z,14.90
2019-05-19T01:10:20.537Z,14.80
2019-05-19T01:12:49.876Z,14.80
2019-05-19T01:15:20.125Z,14.80
2019-05-19T01:17:49.451Z,14.80
2019-05-19T01:20:18.988Z,14.70
2019-05-19T01:22:48.358Z,14.70
2019-05-19T01:25:17.898Z,14.70
2019-05-19T01:27:47.434Z,14.60
2019-05-19T01:30:17.263Z,14.60
2019-05-19T01:32:46.606Z,14.50
2019-05-19T01:35:16.090Z,14.50
2019-05-19T01:37:45.679Z,14.40
2019-05-19T01:40:15.218Z,14.40
2019-05-19T01:42:46.438Z,14.40
2019-05-19T01:45:16.274Z,14.40
2019-05-19T01:47:45.696Z,14.30
2019-05-19T01:50:18.114Z,14.30
2019-05-19T01:52:46.166Z,14.30
2019-05-19T01:55:15.705Z,14.20
2019-05-19T01:57:45.027Z,14.20
2019-05-19T02:00:18.167Z,14.20
2019-05-19T02:02:47.463Z,14.20
2019-05-19T02:05:17.388Z,14.20
2019-05-19T02:07:46.758Z,14.10
2019-05-19T02:10:16.082Z,14.10
2019-05-19T02:12:45.286Z,14.00
2019-05-19T02:15:17.015Z,14.00
2019-05-19T02:17:46.452Z,14.00
2019-05-19T02:20:30.620Z,14.00
2019-05-19T02:22:47.912Z,13.90
2019-05-19T02:25:18.527Z,13.90
2019-05-19T02:27:47.726Z,13.90
2019-05-19T02:30:17.352Z,13.90
2019-05-19T02:32:46.745Z,13.80
2019-05-19T02:35:15.992Z,13.80
2019-05-19T02:37:45.261Z,13.70
2019-05-19T02:40:15.572Z,13.70
2019-05-19T02:42:47.064Z,13.70
2019-05-19T02:45:16.339Z,13.60
2019-05-19T02:48:26.201Z,13.60
2019-05-19T02:50:57.130Z,13.60
2019-05-19T02:53:26.705Z,13.60
2019-05-19T02:55:56.344Z,13.50
2019-05-19T02:58:25.925Z,13.50
2019-05-19T03:00:55.321Z,13.50
2019-05-19T03:03:24.649Z,13.50
2019-05-19T03:05:53.960Z,13.50
2019-05-19T03:08:23.252Z,13.40
2019-05-19T03:10:52.744Z,13.40
2019-05-19T03:13:22.075Z,13.40
2019-05-19T03:15:51.622Z,13.40
2019-05-19T03:18:21.064Z,13.40
2019-05-19T03:20:50.455Z,13.40
2019-05-19T03:23:19.834Z,13.40
2019-05-19T03:25:49.141Z,13.30
2019-05-19T03:28:18.502Z,13.30
2019-05-19T03:31:10.371Z,13.30
2019-05-19T03:33:41.908Z,13.30
2019-05-19T03:36:11.539Z,13.20
2019-05-19T03:38:42.752Z,13.20
2019-05-19T03:41:12.196Z,13.20
2019-05-19T03:43:41.812Z,13.20
2019-05-19T03:46:11.465Z,13.20
2019-05-19T03:48:40.720Z,13.20
2019-05-19T03:51:27.476Z,13.30
2019-05-19T03:53:41.289Z,13.30
2019-05-19T03:56:10.649Z,13.30
2019-05-19T03:58:40.032Z,13.40
2019-05-19T04:01:09.239Z,13.40
2019-05-19T04:03:38.618Z,13.40
2019-05-19T04:06:07.897Z,13.40
2019-05-19T04:08:37.413Z,13.50
2019-05-19T04:11:06.852Z,13.50
2019-05-19T04:13:36.215Z,13.50
2019-05-19T04:16:05.667Z,13.60
2019-05-19T04:18:35.065Z,13.60
2019-05-19T04:21:05.603Z,13.70
2019-05-19T04:23:34.976Z,13.80
2019-05-19T04:26:04.237Z,13.80
2019-05-19T04:28:33.629Z,13.90
2019-05-19T04:31:02.934Z,14.00
2019-05-19T04:33:32.282Z,14.10
2019-05-19T04:36:01.735Z,14.20
2019-05-19T04:38:31.005Z,14.30
2019-05-19T04:41:00.404Z,14.40
2019-05-19T04:43:29.788Z,14.50
2019-05-19T04:45:59.074Z,14.60
2019-05-19T04:48:28.528Z,14.70
2019-05-19T04:50:57.875Z,14.90
2019-05-19T04:53:27.143Z,15.00
2019-05-19T04:55:56.646Z,15.10
2019-05-19T04:58:28.042Z,15.20
2019-05-19T05:00:57.348Z,15.30
2019-05-19T05:03:26.780Z,15.40
2019-05-19T05:05:56.372Z,15.50
2019-05-19T05:08:30.238Z,15.60
2019-05-19T05:10:56.792Z,15.70
2019-05-19T05:13:26.204Z,15.80
2019-05-19T05:15:55.823Z,15.90
2019-05-19T05:18:25.184Z,16.00
2019-05-19T05:20:54.465Z,16.10
2019-05-19T05:23:23.737Z,16.20
2019-05-19T05:25:52.956Z,16.30
2019-05-19T05:28:22.385Z,16.40
2019-05-19T05:30:52.208Z,16.50
2019-05-19T05:33:21.791Z,16.50
2019-05-19T05:35:51.248Z,16.60
2019-05-19T05:38:21.840Z,16.70
2019-05-19T05:40:51.520Z,16.80
2019-05-19T05:43:20.986Z,16.90
2019-05-19T05:45:50.563Z,17.00
2019-05-19T05:48:19.965Z,17.10
2019-05-19T05:50:49.323Z,17.20
2019-05-19T05:53:18.488Z,17.30
2019-05-19T05:55:47.689Z,17.30
2019-05-19T05:58:16.909Z,17.40
2019-05-19T06:00:46.242Z,17.50
2019-05-19T06:03:15.613Z,17.60
2019-05-19T06:05:44.996Z,17.70
2019-05-19T06:08:14.416Z,17.80
2019-05-19T06:10:44.175Z,17.90
2019-05-19T06:13:13.647Z,18.00
2019-05-19T06:15:43.102Z,18.20
2019-05-19T06:18:12.505Z,18.20
2019-05-19T06:20:41.898Z,18.40
2019-05-19T06:23:11.145Z,18.50
2019-05-19T06:25:43.831Z,18.60
2019-05-19T06:28:13.312Z,18.70
2019-05-19T06:30:42.879Z,18.80
2019-05-19T06:33:12.341Z,18.90
2019-05-19T06:35:41.993Z,19.00
2019-05-19T06:38:11.457Z,19.10
2019-05-19T06:40:40.978Z,19.30
2019-05-19T06:43:10.478Z,19.40
2019-05-19T06:45:39.825Z,19.50
2019-05-19T06:48:09.159Z,19.70
2019-05-19T06:50:40.711Z,19.80
2019-05-19T06:53:14.164Z,19.90
2019-05-19T06:55:40.409Z,20.10
2019-05-19T06:58:09.653Z,20.20
2019-05-19T07:00:39.097Z,20.30
2019-05-19T07:03:10.491Z,20.40
2019-05-19T07:05:39.795Z,20.50
2019-05-19T07:08:09.251Z,20.50
2019-05-19T07:10:38.569Z,20.70
2019-05-19T07:13:07.879Z,20.80
2019-05-19T07:15:37.172Z,20.90
2019-05-19T07:18:06.383Z,21.00
2019-05-19T07:20:35.839Z,21.10
2019-05-19T07:23:05.233Z,21.20
2019-05-19T07:25:34.615Z,21.30
2019-05-19T07:28:04.005Z,21.40
2019-05-19T07:30:33.375Z,21.50
2019-05-19T07:33:02.715Z,21.60
2019-05-19T07:35:32.039Z,21.70
2019-05-19T07:38:01.365Z,21.80
2019-05-19T07:40:30.820Z,21.80
2019-05-19T07:46:28.525Z,22.00
2019-05-19T07:48:57.957Z,22.10
2019-05-19T07:51:27.186Z,22.20
2019-05-19T07:53:56.454Z,22.30
2019-05-19T07:56:48.346Z,22.40
2019-05-19T07:59:17.809Z,22.50
2019-05-19T08:01:46.982Z,22.60
2019-05-19T08:04:16.267Z,22.60
2019-05-19T08:06:45.658Z,22.80
2019-05-19T08:09:15.035Z,22.90
2019-05-19T08:11:44.330Z,22.90
2019-05-19T08:14:13.512Z,23.00
2019-05-19T08:16:42.886Z,23.00
2019-05-19T08:19:12.594Z,23.00
2019-05-19T08:21:42.460Z,23.10
2019-05-19T08:24:12.231Z,23.20
2019-05-19T08:26:43.213Z,23.30
2019-05-19T08:29:12.658Z,23.40
2019-05-19T08:31:42.115Z,23.60
2019-05-19T08:34:11.597Z,23.60
2019-05-19T08:36:40.964Z,23.70
2019-05-19T08:39:10.492Z,23.80
2019-05-19T08:41:39.941Z,23.80
2019-05-19T08:44:09.509Z,23.80
2019-05-19T08:46:38.879Z,23.90
2019-05-19T08:49:08.248Z,24.00
2019-05-19T08:51:38.008Z,24.10
2019-05-19T08:54:14.944Z,24.30
2019-05-19T08:56:41.707Z,24.50
2019-05-19T08:59:11.048Z,24.60
2019-05-19T09:01:40.541Z,24.70
2019-05-19T09:04:09.925Z,24.90
2019-05-19T09:06:39.406Z,25.10
2019-05-19T09:09:10.415Z,25.20
2019-05-19T09:11:39.748Z,25.40
2019-05-19T09:14:09.098Z,25.50
2019-05-19T09:16:38.383Z,25.70
2019-05-19T09:19:07.795Z,25.80
2019-05-19T09:21:37.092Z,25.80
2019-05-19T09:24:06.364Z,25.80
2019-05-19T09:26:35.771Z,25.80
2019-05-19T09:29:05.107Z,25.70
2019-05-19T09:31:34.472Z,25.70
2019-05-19T09:34:03.890Z,25.70
2019-05-19T09:36:33.291Z,25.70
2019-05-19T09:39:03.000Z,25.70
2019-05-19T09:41:32.329Z,25.70
2019-05-19T09:44:01.636Z,25.80
2019-05-19T09:46:33.482Z,25.80
2019-05-19T09:49:31.024Z,25.80
2019-05-19T09:52:00.652Z,25.90
2019-05-19T09:54:44.127Z,26.00
2019-05-19T09:57:01.941Z,26.00
2019-05-19T09:59:31.384Z,26.00
2019-05-19T10:02:00.662Z,26.00
2019-05-19T10:04:30.092Z,26.10
2019-05-19T10:06:59.689Z,26.20
2019-05-19T10:10:12.749Z,26.20
2019-05-19T10:12:42.180Z,26.20
2019-05-19T10:15:11.966Z,26.20
2019-05-19T10:17:41.190Z,26.20
2019-05-19T10:20:11.440Z,26.30
2019-05-19T10:22:42.056Z,26.40
2019-05-19T10:25:21.671Z,26.50
2019-05-19T10:27:42.565Z,26.50
2019-05-19T10:30:12.695Z,26.60
2019-05-19T10:32:42.270Z,26.80
2019-05-19T10:35:11.822Z,26.90
2019-05-19T10:37:41.525Z,27.00
2019-05-19T10:40:11.048Z,27.20
2019-05-19T10:42:40.291Z,27.20
2019-05-19T10:45:10.114Z,27.20
2019-05-19T10:47:39.442Z,27.20
2019-05-19T10:50:09.454Z,27.30
2019-05-19T10:52:39.029Z,27.40
2019-05-19T10:55:08.940Z,27.50
2019-05-19T10:57:38.236Z,27.60
2019-05-19T11:00:07.769Z,27.70
2019-05-19T11:02:37.150Z,27.80
2019-05-19T11:05:06.905Z,27.80
2019-05-19T11:07:36.087Z,27.80
2019-05-19T11:10:05.713Z,28.00
2019-05-19T11:12:35.005Z,28.00
2019-05-19T11:15:04.607Z,28.10
2019-05-19T11:17:33.857Z,28.20
2019-05-19T11:20:03.132Z,28.40
2019-05-19T11:22:32.434Z,28.60
2019-05-19T11:25:01.804Z,28.90
2019-05-19T11:27:31.104Z,29.00
2019-05-19T11:30:00.467Z,29.20
2019-05-19T11:32:29.756Z,29.30
2019-05-19T11:35:00.065Z,29.40
2019-05-19T11:37:29.349Z,29.60
2019-05-19T11:39:58.557Z,30.10
2019-05-19T11:42:27.860Z,30.70
2019-05-19T11:44:57.136Z,31.40
2019-05-19T11:47:26.513Z,32.00
2019-05-19T11:49:55.714Z,32.40
2019-05-19T11:52:25.122Z,32.80
2019-05-19T11:54:54.410Z,33.10
2019-05-19T11:57:23.730Z,33.00
2019-05-19T11:59:52.941Z,32.80
2019-05-19T12:02:22.171Z,32.50
2019-05-19T12:04:51.372Z,32.50
2019-05-19T12:07:20.547Z,32.50
2019-05-19T12:09:49.964Z,32.40
2019-05-19T12:12:19.242Z,32.10
2019-05-19T12:14:48.452Z,31.80
2019-05-19T12:17:17.636Z,31.60
2019-05-19T12:19:46.914Z,31.50
2019-05-19T12:22:16.321Z,32.00
2019-05-19T12:24:45.586Z,32.80
2019-05-19T12:30:54.629Z,32.70
2019-05-19T12:33:23.866Z,32.30
2019-05-19T12:35:53.197Z,32.00
2019-05-19T12:38:22.350Z,31.80
2019-05-19T12:40:51.655Z,31.90
2019-05-19T12:43:21.210Z,32.20
2019-05-19T12:45:50.469Z,32.70
2019-05-19T12:48:19.860Z,33.10
2019-05-19T12:50:49.296Z,33.40
2019-05-19T12:53:18.574Z,33.90
2019-05-19T12:55:47.938Z,34.10
2019-05-19T12:58:17.541Z,34.20
2019-05-19T13:00:46.895Z,34.50
2019-05-19T13:03:16.345Z,35.30
2019-05-19T13:05:45.648Z,36.20
2019-05-19T13:08:14.922Z,36.80
2019-05-19T13:10:45.262Z,36.50
2019-05-19T13:13:14.562Z,35.80
2019-05-19T13:15:43.900Z,35.00
2019-05-19T13:18:13.173Z,34.90
2019-05-19T13:20:42.479Z,35.40
2019-05-19T13:23:12.155Z,35.90
2019-05-19T13:25:41.491Z,36.00
2019-05-19T13:28:11.039Z,36.00
2019-05-19T13:30:43.454Z,36.10
2019-05-19T13:33:11.466Z,36.40
2019-05-19T13:35:40.829Z,37.20
2019-05-19T13:38:10.208Z,38.20
2019-05-19T13:40:39.559Z,38.60
2019-05-19T13:43:09.879Z,38.60
2019-05-19T13:45:39.377Z,38.10
2019-05-19T13:48:09.744Z,37.70
2019-05-19T13:50:39.145Z,37.30
2019-05-19T13:53:08.415Z,36.90
2019-05-19T13:55:37.767Z,36.30
2019-05-19T13:58:07.119Z,35.90
2019-05-19T14:00:37.655Z,35.60
2019-05-19T14:03:07.068Z,35.30
2019-05-19T14:05:36.492Z,35.10
2019-05-19T14:08:06.169Z,35.00
2019-05-19T14:10:42.383Z,35.00
2019-05-19T14:13:11.807Z,34.80
2019-05-19T14:15:41.787Z,34.60
2019-05-19T14:18:11.266Z,34.40
2019-05-19T14:20:40.739Z,34.30
2019-05-19T14:23:10.074Z,34.20
2019-05-19T14:25:39.420Z,34.10
2019-05-19T14:28:08.821Z,34.10
2019-05-19T14:30:38.205Z,34.00
2019-05-19T14:33:08.528Z,33.60
2019-05-19T14:35:38.042Z,33.20
2019-05-19T14:38:07.528Z,32.80
2019-05-19T14:40:37.013Z,32.50
2019-05-19T14:43:07.418Z,32.30
2019-05-19T14:45:36.881Z,32.20
2019-05-19T14:48:06.358Z,32.10
2019-05-19T14:50:35.923Z,31.90
2019-05-19T14:53:05.365Z,31.80
2019-05-19T14:55:35.788Z,31.90
2019-05-19T14:58:05.152Z,32.30
2019-05-19T15:00:34.696Z,33.20
2019-05-19T15:03:04.048Z,34.30
2019-05-19T15:05:33.545Z,35.10
2019-05-19T15:08:06.484Z,35.90
2019-05-19T15:10:35.887Z,36.70
2019-05-19T15:13:05.294Z,37.40
2019-05-19T15:15:34.693Z,38.00
2019-05-19T15:18:05.172Z,38.40
2019-05-19T15:20:34.677Z,38.40
2019-05-19T15:23:03.944Z,38.00
2019-05-19T15:25:33.269Z,37.30
2019-05-19T15:28:05.176Z,36.80
2019-05-19T15:30:33.539Z,36.50
2019-05-19T15:33:03.076Z,36.40
2019-05-19T15:35:32.645Z,36.80
2019-05-19T15:38:01.946Z,37.20
2019-05-19T15:40:31.328Z,37.30
2019-05-19T15:43:00.883Z,37.50
2019-05-19T15:45:30.082Z,37.90
2019-05-19T15:47:59.379Z,38.40
2019-05-19T15:50:28.659Z,38.80
2019-05-19T15:52:58.144Z,38.90
2019-05-19T15:55:27.493Z,38.50
2019-05-19T15:57:56.851Z,38.00
2019-05-19T16:00:26.182Z,37.30
2019-05-19T16:02:55.533Z,36.70
2019-05-19T16:05:24.774Z,36.10
2019-05-19T16:07:54.035Z,35.60
2019-05-19T16:10:23.421Z,35.10
2019-05-19T16:12:52.832Z,34.70
2019-05-19T16:15:22.393Z,34.60
2019-05-19T16:17:51.694Z,34.40
2019-05-19T16:20:22.890Z,34.10
2019-05-19T16:22:52.405Z,33.80
2019-05-19T16:25:21.880Z,33.50
2019-05-19T16:27:51.269Z,33.20
2019-05-19T16:30:20.776Z,32.80
2019-05-19T16:32:50.099Z,32.40
2019-05-19T16:35:19.576Z,32.20
2019-05-19T16:37:48.874Z,32.10
2019-05-19T16:40:18.152Z,32.10
2019-05-19T16:42:47.607Z,32.20
2019-05-19T16:45:17.169Z,32.30
2019-05-19T16:47:52.404Z,32.40
2019-05-19T16:50:24.351Z,32.50
2019-05-19T16:56:22.602Z,33.20
2019-05-19T16:58:52.395Z,33.90
2019-05-19T17:01:21.736Z,34.30
2019-05-19T17:03:51.123Z,34.60
2019-05-19T17:06:21.688Z,34.80
2019-05-19T17:08:50.970Z,35.00
2019-05-19T17:11:20.376Z,35.10
2019-05-19T17:13:49.662Z,35.10
2019-05-19T17:16:19.080Z,34.90
2019-05-19T17:18:48.497Z,34.40
2019-05-19T17:21:17.823Z,34.10
2019-05-19T17:23:47.174Z,33.80
2019-05-19T17:26:16.623Z,33.70
2019-05-19T17:28:59.830Z,33.70
2019-05-19T17:31:17.754Z,33.50
2019-05-19T17:33:51.304Z,33.30
2019-05-19T17:36:20.789Z,33.00
2019-05-19T17:38:50.056Z,32.70
2019-05-19T17:41:20.366Z,32.30
2019-05-19T17:43:50.454Z,31.90
2019-05-19T17:46:19.808Z,31.40
2019-05-19T17:48:49.648Z,31.00
2019-05-19T17:51:20.621Z,30.60
2019-05-19T17:53:50.345Z,30.30
2019-05-19T17:56:21.020Z,30.00
2019-05-19T17:58:50.847Z,29.70
2019-05-19T18:01:20.718Z,29.30
2019-05-19T18:03:50.626Z,29.00
2019-05-19T18:06:20.161Z,28.70
2019-05-19T18:08:49.836Z,28.40
2019-05-19T18:11:19.505Z,28.20
2019-05-19T18:13:49.217Z,27.90
2019-05-19T18:16:18.663Z,27.70
2019-05-19T18:18:47.861Z,27.50
2019-05-19T18:21:17.383Z,27.30
2019-05-19T18:23:46.802Z,27.10
2019-05-19T18:26:16.127Z,26.90
2019-05-19T18:28:46.734Z,26.70
2019-05-19T18:31:17.703Z,26.50
2019-05-19T18:33:47.205Z,26.30
2019-05-19T18:36:16.573Z,26.10
2019-05-19T18:38:45.993Z,26.00
2019-05-19T18:41:15.251Z,25.80
2019-05-19T18:43:44.498Z,25.70
2019-05-19T18:46:13.716Z,25.50
2019-05-19T18:48:42.985Z,25.40
2019-05-19T18:51:12.375Z,25.20
2019-05-19T18:53:41.782Z,25.10
2019-05-19T18:56:12.242Z,25.00
2019-05-19T18:58:41.559Z,24.80
2019-05-19T19:01:10.998Z,24.70
2019-05-19T19:03:40.476Z,24.60
2019-05-19T19:06:10.011Z,24.50
2019-05-19T19:08:39.443Z,24.30
2019-05-19T19:11:09.125Z,24.20
2019-05-19T19:13:39.671Z,24.20
2019-05-19T19:16:09.232Z,24.00
2019-05-19T19:18:39.026Z,23.90
2019-05-19T19:21:08.408Z,23.80
2019-05-19T19:23:39.167Z,23.70
2019-05-19T19:26:08.486Z,23.60
2019-05-19T19:28:38.912Z,23.50
2019-05-19T19:31:08.216Z,23.40
2019-05-19T19:33:37.445Z,23.40
2019-05-19T19:36:07.860Z,23.30
2019-05-19T19:38:37.306Z,23.30
2019-05-19T19:41:07.259Z,23.20
2019-05-19T19:43:36.889Z,23.10
2019-05-19T19:46:06.229Z,23.10
2019-05-19T19:48:35.816Z,23.00
2019-05-19T19:51:05.312Z,22.90
2019-05-19T19:53:34.746Z,22.80
2019-05-19T19:56:04.221Z,22.80
2019-05-19T19:58:33.435Z,22.70
2019-05-19T20:01:02.849Z,22.60
2019-05-19T20:03:32.436Z,22.60
2019-05-19T20:06:01.893Z,22.50
2019-05-19T20:08:31.268Z,22.50
2019-05-19T20:11:00.661Z,22.40
2019-05-19T20:13:30.021Z,22.30
2019-05-19T20:15:59.274Z,22.30
2019-05-19T20:18:28.702Z,22.20
2019-05-19T20:20:58.493Z,22.20
2019-05-19T20:23:28.992Z,22.10
2019-05-19T20:25:58.566Z,22.00
2019-05-19T20:28:28.005Z,22.00
2019-05-19T20:30:57.540Z,21.90
2019-05-19T20:33:26.865Z,21.80
2019-05-19T20:35:56.398Z,21.80
2019-05-19T20:38:25.696Z,21.70
2019-05-19T20:40:55.115Z,21.60
2019-05-19T20:43:24.619Z,21.60
2019-05-19T20:45:53.909Z,21.60
2019-05-19T20:48:23.598Z,21.50
2019-05-19T20:50:53.172Z,21.40
2019-05-19T20:53:22.533Z,21.30
2019-05-19T20:55:52.177Z,21.30
2019-05-19T20:58:21.792Z,21.20
2019-05-19T21:00:51.982Z,21.10
2019-05-19T21:03:21.423Z,21.00
2019-05-19T21:05:50.799Z,20.90
2019-05-19T21:08:20.091Z,20.90
2019-05-19T21:10:50.293Z,20.80
2019-05-19T21:13:34.849Z,20.70
2019-05-19T21:16:04.208Z,20.60
2019-05-19T21:18:33.620Z,20.50
2019-05-19T21:21:02.975Z,20.40
2019-05-19T21:23:32.262Z,20.30
2019-05-19T21:26:01.600Z,20.30
2019-05-19T21:28:31.052Z,20.20
2019-05-19T21:31:05.945Z,20.10
2019-05-19T21:33:31.694Z,20.10
2019-05-19T21:36:01.072Z,20.00
2019-05-19T21:38:30.863Z,20.00
2019-05-19T21:41:00.287Z,19.90
2019-05-19T21:43:29.696Z,19.90
2019-05-19T21:45:58.990Z,19.80
2019-05-19T21:48:33.367Z,19.80
2019-05-19T21:51:03.782Z,19.70
2019-05-19T21:53:33.225Z,19.60
2019-05-19T21:56:02.801Z,19.50
2019-05-19T21:58:32.254Z,19.40
2019-05-19T22:01:05.859Z,19.30
2019-05-19T22:03:36.434Z,19.20
2019-05-19T22:06:06.131Z,19.20
2019-05-19T22:08:45.664Z,19.10
2019-05-19T22:11:14.925Z,19.10
2019-05-19T22:13:44.316Z,19.00
2019-05-19T22:16:13.991Z,19.00
2019-05-19T22:18:43.365Z,19.00
2019-05-19T22:21:12.816Z,18.90
2019-05-19T22:23:42.257Z,18.90
2019-05-19T22:26:12.696Z,18.90
2019-05-19T22:28:42.299Z,18.90
2019-05-19T22:31:11.821Z,18.80
2019-05-19T22:33:41.231Z,18.70
2019-05-19T22:36:10.531Z,18.80
2019-05-19T22:38:39.955Z,18.70
2019-05-19T22:41:09.165Z,18.60
2019-05-19T22:43:38.602Z,18.60
2019-05-19T22:46:07.788Z,18.60
2019-05-19T22:48:37.212Z,18.60
2019-05-19T22:51:06.496Z,18.50
2019-05-19T22:53:35.895Z,18.50
2019-05-19T22:56:05.263Z,18.50
2019-05-19T22:58:34.671Z,18.50
2019-05-19T23:01:04.041Z,18.40
2019-05-19T23:03:34.404Z,18.40
2019-05-19T23:06:03.791Z,18.40
2019-05-19T23:08:33.146Z,18.40
2019-05-19T23:11:02.607Z,18.40
2019-05-19T23:13:31.915Z,18.40
2019-05-19T23:16:01.143Z,18.40
2019-05-19T23:18:30.409Z,18.40
2019-05-19T23:20:59.722Z,18.30
2019-05-19T23:23:29.079Z,18.30
2019-05-19T23:25:58.565Z,18.30
2019-05-19T23:28:27.843Z,18.30
2019-05-19T23:30:57.232Z,18.30
2019-05-19T23:33:26.551Z,18.30
2019-05-19T23:35:55.888Z,18.20
2019-05-19T23:38:25.232Z,18.30
2019-05-19T23:40:54.617Z,18.20
2019-05-19T23:43:23.863Z,18.20
2019-05-19T23:45:53.228Z,18.30
2019-05-19T23:48:22.627Z,18.30
2019-05-19T23:50:51.963Z,18.30
2019-05-19T23:53:23.464Z,18.30
2019-05-19T23:55:52.743Z,18.30
2019-05-19T23:58:22.127Z,18.30
